Impacts TAF Board INFO
FOR SITUATIONAL AWARENESS. NOT TO BE USED FOR FLIGHT PLANNING PURPOSES.
IDs:

KSEA - Seattle-Tacoma Intl, WA, US

Issued at 0540 UTC 16 Aug 2018
Updated at 1027 UTC 16 Aug 2018
Potential Impact None Slight Moderate High
Time0953Z 16/11Z 16/12Z 16/13Z 16/14Z 16/15Z 16/16Z 16/17Z 16/18Z 16/19Z 16/20Z 16/21Z 16/22Z 16/23Z>>
Type OBS PRVL
  [TEMP]  
PRVL PRVL PRVL PRVL PRVL PRVL PRVL PRVL PRVL PRVL PRVL PRVL
VIS 7 6 5 5 5 5 5 5 >6 >6 >6 >6 >6 >6
CIG -- --
  [10]  
7 7 7 7 7 7 -- -- -- -- -- --
Cover FEW FEW
  [BKN]  
OVC OVC OVC OVC OVC OVC SCT SKC SKC SKC SKC SKC
FltCat VFR VFR
  [MVFR]  
IFR IFR IFR IFR IFR IFR VFR VFR VFR VFR VFR VFR
WX -- FU
  [--]  
BR BR BR BR BR BR -- -- -- -- -- --
WDir 200 210
[210]
190 190 190 190 190 190 220 260 260 260 260 260
WSpd 9 5
  [5]  
5 5 5 5 5 5 7 7 7 7 7 7
WGst -- --
  [--]  
-- -- -- -- -- -- -- -- -- -- -- --

Raw TAF
KSEA 160540Z 1606/1712 25004KT 6SM FU SKC
  FM160900 21005KT 6SM FU FEW010
  TEMPO 1610/1612 BKN010
  FM161200 19005KT 5SM BR OVC007
  FM161800 22007KT P6SM SCT012
  FM161900 26007KT P6SM SKC
  FM170900 21006KT P6SM BKN018


Raw METAR
KSEA 160953Z 20009KT 7SM FEW004 15/13 A3000 RMK AO2 SLP160 T01500133
KSEA 160935Z 20006KT 7SM FEW005 16/13 A2999 RMK AO2 T01560133
KSEA 160853Z 19006KT 7SM CLR 16/14 A2998 RMK AO2 SLP155 T01610139 51015
KSEA 160753Z 20004KT 7SM CLR 18/13 A2997 RMK AO2 SLP151 T01780128 403000161

METAR Board
Radar Display
Forecast Discussion

FOR SITUATIONAL AWARENESS. NOT TO BE USED FOR FLIGHT PLANNING PURPOSES.